map of SRT home
SRT - Airport
Location
City:  Soroti, Uganda
ICAO:HUSO
IATA:SRT

Details
Type:Airport (Aerodrome, Airfield)
Use:Public/Civil
Latitude:143'39"N (1.727578)
Longitude:3337'22"E (33.622861)
Datum:WGS 1984
Elevation:3641 ft (1110 m)
Variation:1.82E (WMM2015 magnetic declination)
0.06 annual change
Runways:2
Longest:6094 × 98 ft (1857 × 30 m), paved

Time
Time Zone:UTC+3
Local Time:

Weather
TAF:HUSO 171100Z 1712/1812 05005KT 9999 TS SCT022 FEW024CB FM 171700 08005KT 9000 -TSRA SCT021 FEW023CB
BECMG 1800/1805 34004KT 9999 FEW019 FM 180800 VRB06KT SCT021 FEW023CB

Related Locations
Nearby:
Farthest:NHV: 11794 mi / 18981 km
Nuku Hiva, Marquesas Islands, PF

Find:

   beyond  
but within

Other Information
Maps:
NOTAMs:
Links:
Sources:

  
  • flag of Uganda
  

Sectional Chart

Flight Planning
at skyvector.com

Satellite Image

Google Maps Satellite view

 

Copyright © 2004-2018 Karl L. Swartz. All rights reserved.
The Great Circle Mapper name and logo are trademarks of the Great Circle Mapper.
All other trademarks mentioned herein belong to their respective owners.
Please see credits for attibutions and further copyright information.

  Follow gcmap on Facebook Follow gcmap on Twitter Follow gcmap on Google+ GCmap on LinkedIn

hCard Microformat

Geo Microformat